Aviation Digital Data Service (ADDS)

Output produced by METARs form (0642 UTC 03 December 2016)
found at http://aviationweather.gov/adds/metars/
 
KRUT 030538Z 0306/0406 30006KT P6SM VCSH BKN035 OVC050 
     TEMPO 0307/0311 5SM -SHSN BR BKN028 
     FM031100 31005KT P6SM OVC035 
     FM031500 32010G21KT P6SM OVC025 
     FM032100 32007KT P6SM OVC040